Time;durP1;ratioP1;P1;durP2;ratioP2;P2;SDS_P1;SDS_P2;PMS_P1;PMS_P2;Temp;Humidity;BMP_temperature;BMP_pressure;BME280_temperature;BME280_humidity;BME280_pressure;Samples;Min_cycle;Max_cycle;Signal;HPM_P1;HPM_P2
2023/01/04 00:01:26;;;;;;;14.05;8.27;;;;;;;5.21;100.00;101556.81;5056001;28;20297;-74
2023/01/04 00:03:53;;;;;;;13.45;7.70;;;;;;;5.17;100.00;101561.25;5034550;28;20608;-74
2023/01/04 00:06:20;;;;;;;18.80;9.07;;;;;;;5.23;100.00;101547.00;5035352;28;20202;-74
2023/01/04 00:08:46;;;;;;;13.82;9.70;;;;;;;5.26;100.00;101554.13;5035288;28;20222;-74
2023/01/04 00:11:16;;;;;;;10.80;7.53;;;;;;;5.29;100.00;101563.00;5036617;28;20312;-74
2023/01/04 00:13:43;;;;;;;13.70;8.63;;;;;;;5.37;100.00;101557.63;5046482;28;20702;-74
2023/01/04 00:16:14;;;;;;;11.85;7.70;;;;;;;5.47;100.00;101553.09;5054921;28;20201;-75
2023/01/04 00:18:41;;;;;;;13.10;7.90;;;;;;;5.46;100.00;101548.66;5055425;28;20237;-74
2023/01/04 00:21:09;;;;;;;10.88;7.53;;;;;;;5.47;100.00;101547.75;5055641;28;20251;-73
2023/01/04 00:23:37;;;;;;;13.88;8.10;;;;;;;5.47;100.00;101540.63;5054342;28;20200;-74
2023/01/04 00:26:07;;;;;;;13.52;8.68;;;;;;;5.47;100.00;101534.41;5055955;28;20225;-74
2023/01/04 00:28:33;;;;;;;12.07;7.90;;;;;;;5.55;100.00;101535.25;5055020;28;20279;-75
2023/01/04 00:31:02;;;;;;;12.20;8.57;;;;;;;5.55;100.00;101541.47;5054821;28;20201;-74
2023/01/04 00:33:30;;;;;;;11.70;7.47;;;;;;;5.60;100.00;101530.75;5054936;28;20194;-76
2023/01/04 00:36:02;;;;;;;14.75;9.07;;;;;;;5.60;100.00;101530.75;5068170;28;20228;-72
2023/01/04 00:38:29;;;;;;;13.10;7.13;;;;;;;5.71;100.00;101530.69;5067638;28;20212;-72
2023/01/04 00:40:55;;;;;;;11.40;8.00;;;;;;;5.72;100.00;101530.69;5065713;28;20287;-73
2023/01/04 00:43:22;;;;;;;11.43;8.07;;;;;;;5.72;100.00;101522.66;5058244;28;20597;-74
2023/01/04 00:45:48;;;;;;;11.10;8.10;;;;;;;5.75;100.00;101521.75;5055326;28;20316;-73
2023/01/04 00:48:15;;;;;;;14.05;9.13;;;;;;;5.73;100.00;101510.19;5064175;28;20209;-74
2023/01/04 00:50:43;;;;;;;17.10;9.30;;;;;;;5.74;100.00;101520.84;5058542;28;20209;-76
2023/01/04 00:53:10;;;;;;;11.27;8.57;;;;;;;5.72;100.00;101506.63;5059871;28;20288;-75
2023/01/04 00:55:36;;;;;;;13.50;10.10;;;;;;;5.67;100.00;101499.53;5062564;28;20197;-73
2023/01/04 00:58:03;;;;;;;12.35;10.05;;;;;;;5.61;100.00;101497.78;5056021;28;20205;-74
2023/01/04 01:00:30;;;;;;;14.05;9.23;;;;;;;5.63;100.00;101502.22;5057623;28;20201;-73
2023/01/04 01:02:57;;;;;;;15.90;9.25;;;;;;;5.71;100.00;101499.47;5055169;28;20659;-73
2023/01/04 01:05:23;;;;;;;16.20;10.50;;;;;;;5.70;100.00;101494.13;5055358;28;20221;-74
2023/01/04 01:07:51;;;;;;;14.32;9.70;;;;;;;5.74;100.00;101490.53;5055369;28;20205;-74
2023/01/04 01:10:18;;;;;;;12.32;9.00;;;;;;;5.76;100.00;101486.09;5055737;28;20225;-76
2023/01/04 01:12:45;;;;;;;14.90;9.52;;;;;;;5.66;100.00;101482.59;5056109;28;20240;-74
2023/01/04 01:15:12;;;;;;;12.75;8.70;;;;;;;5.64;100.00;101476.38;5059076;28;20201;-74
2023/01/04 01:17:40;;;;;;;13.32;9.10;;;;;;;5.60;100.00;101470.16;5065020;28;20205;-74
2023/01/04 01:20:17;;;;;;;14.93;10.80;;;;;;;5.51;100.00;101470.22;5063265;28;20229;-76
2023/01/04 01:22:46;;;;;;;14.55;10.52;;;;;;;5.51;100.00;101477.38;5065384;28;20261;-74
2023/01/04 01:25:14;;;;;;;16.80;10.40;;;;;;;5.53;100.00;101475.56;5065639;28;20289;-74
2023/01/04 01:27:41;;;;;;;12.93;10.02;;;;;;;5.55;100.00;101465.75;5067701;28;20631;-74
2023/01/04 01:30:09;;;;;;;13.88;10.13;;;;;;;5.49;100.00;101466.69;5061465;28;20225;-73
2023/01/04 01:32:36;;;;;;;13.65;10.15;;;;;;;5.50;100.00;101452.44;5064579;28;20563;-76
2023/01/04 01:35:02;;;;;;;15.50;12.35;;;;;;;5.54;100.00;101459.53;5063405;28;20197;-74
2023/01/04 01:37:29;;;;;;;15.77;10.68;;;;;;;5.63;100.00;101462.13;5064935;28;20211;-74
2023/01/04 01:39:56;;;;;;;15.73;9.77;;;;;;;5.65;100.00;101464.78;5064967;28;20229;-74
2023/01/04 01:42:25;;;;;;;15.10;12.02;;;;;;;5.68;100.00;101458.53;5063027;28;20200;-73
2023/01/04 01:45:00;;;;;;;17.58;12.60;;;;;;;5.67;100.00;101459.44;5065243;28;20231;-74
2023/01/04 01:47:39;;;;;;;19.63;11.63;;;;;;;5.72;100.00;101458.50;5065846;28;20212;-72
2023/01/04 01:50:22;;;;;;;16.48;11.02;;;;;;;5.75;100.00;101457.59;5069180;28;20318;-73
2023/01/04 01:52:49;;;;;;;19.40;12.70;;;;;;;5.73;100.00;101444.22;5069272;28;20192;-74
2023/01/04 01:55:16;;;;;;;19.20;13.70;;;;;;;5.72;100.00;101439.78;5065455;28;20201;-74
2023/01/04 01:57:49;;;;;;;18.67;13.45;;;;;;;5.69;100.00;101436.25;5062982;28;20251;-73
2023/01/04 02:00:16;;;;;;;20.50;12.90;;;;;;;5.69;100.00;101437.13;5061990;28;20236;-73
2023/01/04 02:02:52;;;;;;;15.93;12.20;;;;;;;5.70;100.00;101435.34;5061492;28;20830;-74
2023/01/04 02:05:19;;;;;;;21.20;13.35;;;;;;;5.68;100.00;101437.16;5061486;28;20224;-74
2023/01/04 02:07:47;;;;;;;21.17;14.43;;;;;;;5.64;100.00;101441.63;5062120;28;20200;-74
2023/01/04 02:10:15;;;;;;;18.70;14.48;;;;;;;5.71;100.00;101421.09;5061205;28;20213;-73
2023/01/04 02:12:43;;;;;;;21.55;13.77;;;;;;;5.73;100.00;101427.31;5062440;28;20201;-75
2023/01/04 02:15:13;;;;;;;21.95;14.07;;;;;;;5.76;100.00;101424.59;5060750;28;20228;-73
2023/01/04 02:17:49;;;;;;;21.15;14.75;;;;;;;5.76;100.00;101429.94;5059569;28;20216;-73
2023/01/04 02:20:36;;;;;;;19.20;13.77;;;;;;;5.78;100.00;101428.16;5058243;28;20259;-74
2023/01/04 02:23:35;;;;;;;20.52;14.50;;;;;;;5.78;100.00;101428.16;5053989;28;20605;-73
2023/01/04 02:26:34;;;;;;;18.55;13.52;;;;;;;5.79;100.00;101421.91;5052367;28;20221;-73
2023/01/04 02:29:30;;;;;;;23.60;15.45;;;;;;;5.84;100.00;101417.41;5052195;28;20225;-73
2023/01/04 02:32:01;;;;;;;19.45;14.25;;;;;;;5.85;100.00;101419.16;5053387;28;20199;-74
2023/01/04 02:34:38;;;;;;;24.70;16.50;;;;;;;5.90;100.00;101420.03;5053064;28;20195;-74
2023/01/04 02:37:11;;;;;;;22.33;13.88;;;;;;;5.95;100.00;101420.91;5054281;28;20208;-74
2023/01/04 02:39:49;;;;;;;21.77;15.40;;;;;;;5.98;100.00;101411.94;5053997;28;20217;-74
2023/01/04 02:44:51;;;;;;;22.30;15.07;;;;;;;5.99;100.00;101419.97;5053485;28;20738;-74
2023/01/04 02:45:12;;;;;;;20.83;14.35;;;;;;;5.99;100.00;101414.63;5054889;28;20217;-73
2023/01/04 02:50:32;;;;;;;21.58;15.18;;;;;;;5.96;100.00;101400.38;5056740;28;20236;-74
2023/01/04 02:53:02;;;;;;;23.90;16.02;;;;;;;6.01;100.00;101401.22;5053888;28;20198;-73
2023/01/04 02:55:38;;;;;;;22.50;16.20;;;;;;;6.02;100.00;101387.81;5052929;28;20207;-73
2023/01/04 02:58:10;;;;;;;25.30;17.20;;;;;;;6.01;100.00;101385.16;5056251;28;20197;-72
2023/01/04 03:06:41;;;;;;;18.00;13.70;;;;;;;5.97;100.00;101372.72;4956314;29;20283;-73
2023/01/04 03:09:14;;;;;;;23.05;15.75;;;;;;;5.98;100.00;101366.50;4954377;29;20224;-74
2023/01/04 03:14:35;;;;;;;28.13;14.77;;;;;;;5.94;100.00;101360.28;4972642;28;20187;-74
2023/01/04 03:17:06;;;;;;;22.27;15.73;;;;;;;5.93;100.00;101357.59;4971685;28;20206;-74
2023/01/04 03:19:53;;;;;;;26.17;17.40;;;;;;;5.99;100.00;101354.88;4970677;28;20702;-74
2023/01/04 03:36:26;;;;;;;22.38;16.05;;;;;;;6.07;100.00;101336.97;4971451;28;20227;-74
2023/01/04 03:50:16;;;;;;;22.88;16.27;;;;;;;6.03;100.00;101320.06;5035570;28;20279;-74
2023/01/04 03:52:47;;;;;;;19.48;14.55;;;;;;;6.11;100.00;101311.97;5044275;28;20181;-74
2023/01/04 03:55:16;;;;;;;20.90;15.73;;;;;;;6.11;100.00;101313.75;5055633;28;20186;-75
2023/01/04 03:57:44;;;;;;;20.67;14.02;;;;;;;6.08;100.00;101303.94;5054213;28;20189;-73
2023/01/04 04:00:13;;;;;;;18.95;15.32;;;;;;;6.12;100.00;101299.47;5053698;28;20308;-74
2023/01/04 04:02:41;;;;;;;19.95;13.35;;;;;;;6.15;100.00;101288.72;5054190;28;20292;-74
2023/01/04 04:10:42;;;;;;;18.90;14.23;;;;;;;6.01;100.00;101271.03;5056652;28;20189;-74
2023/01/04 04:13:08;;;;;;;17.58;12.35;;;;;;;6.02;100.00;101255.91;5056020;28;20202;-75
2023/01/04 04:15:38;;;;;;;18.80;14.18;;;;;;;6.00;100.00;101263.94;5056147;28;20212;-74
2023/01/04 04:18:05;;;;;;;21.77;13.80;;;;;;;5.92;100.00;101260.44;5060845;28;20201;-73
2023/01/04 04:20:32;;;;;;;20.67;14.73;;;;;;;5.94;100.00;101255.09;5081276;22;20230;-74
2023/01/04 04:23:00;;;;;;;17.77;12.75;;;;;;;5.90;100.00;101248.91;5026501;28;20274;-75
2023/01/04 04:25:27;;;;;;;19.48;13.95;;;;;;;5.89;100.00;101246.25;5026648;28;20226;-76
2023/01/04 04:27:53;;;;;;;20.15;14.27;;;;;;;5.90;100.00;101258.69;5016142;28;20202;-74
2023/01/04 04:30:20;;;;;;;18.15;11.80;;;;;;;5.92;100.00;101240.84;5028870;28;20214;-74
2023/01/04 04:32:46;;;;;;;18.98;12.77;;;;;;;5.90;100.00;101238.22;5023494;28;20206;-76
2023/01/04 04:35:13;;;;;;;20.40;12.45;;;;;;;5.91;100.00;101233.75;5016714;28;20194;-75
2023/01/04 04:37:40;;;;;;;14.65;9.10;;;;;;;5.92;100.00;101227.47;5015559;28;20294;-75
2023/01/04 04:41:37;;;;;;;17.35;12.35;;;;;;;5.92;100.00;101232.81;5016494;28;20306;-76
2023/01/04 04:42:55;;;;;;;16.33;11.63;;;;;;;5.89;100.00;101227.53;5017771;28;20191;-73
2023/01/04 04:45:22;;;;;;;17.30;12.60;;;;;;;5.90;100.00;101227.50;5017093;28;20281;-74
2023/01/04 04:47:48;;;;;;;16.20;11.85;;;;;;;5.89;100.00;101227.53;5017350;28;20210;-74
2023/01/04 04:50:15;;;;;;;16.90;12.95;;;;;;;5.94;100.00;101213.22;5017581;28;20598;-75
2023/01/04 04:52:41;;;;;;;17.55;11.85;;;;;;;5.87;100.00;101210.63;5017397;28;20684;-75
2023/01/04 04:55:10;;;;;;;18.08;11.57;;;;;;;5.90;100.00;101223.94;5015606;28;20286;-74
2023/01/04 04:57:38;;;;;;;12.55;8.52;;;;;;;5.80;100.00;101207.13;5019260;28;20198;-76
2023/01/04 05:00:07;;;;;;;14.80;11.40;;;;;;;5.79;100.00;101227.66;5018988;28;20254;-75
2023/01/04 05:02:33;;;;;;;17.90;12.20;;;;;;;5.79;100.00;101213.41;5023152;28;20230;-74
2023/01/04 05:05:00;;;;;;;20.45;11.23;;;;;;;5.78;100.00;101203.59;5020236;28;20233;-73
2023/01/04 05:07:27;;;;;;;17.08;9.68;;;;;;;5.82;100.00;101195.50;5020022;28;20222;-74
2023/01/04 05:09:54;;;;;;;16.30;11.02;;;;;;;5.78;100.00;101187.56;5015926;28;20223;-75
2023/01/04 05:15:06;;;;;;;15.88;10.82;;;;;;;5.81;100.00;101177.72;5004700;28;20210;-75
2023/01/04 05:17:33;;;;;;;13.68;9.98;;;;;;;5.78;100.00;101171.53;5015382;28;20199;-73
2023/01/04 05:19:59;;;;;;;17.25;10.63;;;;;;;5.81;100.00;101172.38;4996282;28;20233;-73
2023/01/04 05:22:26;;;;;;;15.98;11.95;;;;;;;5.84;100.00;101171.44;5008013;28;20225;-73
2023/01/04 05:24:52;;;;;;;21.70;10.75;;;;;;;5.88;100.00;101167.84;4995866;28;20211;-74
2023/01/04 05:27:19;;;;;;;14.38;10.80;;;;;;;5.85;100.00;101167.84;5000832;28;20230;-74
2023/01/04 05:32:31;;;;;;;18.38;11.57;;;;;;;5.84;100.00;101182.13;5014872;28;20260;-72
2023/01/04 05:34:57;;;;;;;13.18;9.23;;;;;;;5.80;100.00;101167.03;5014863;28;20282;-74
2023/01/04 05:37:25;;;;;;;18.13;12.25;;;;;;;5.82;100.00;101178.59;5016180;28;20194;-75
2023/01/04 05:39:52;;;;;;;18.35;13.38;;;;;;;5.81;100.00;101180.41;5022541;28;20692;-73
2023/01/04 05:42:26;;;;;;;14.75;11.07;;;;;;;5.80;100.00;101169.72;5019918;28;20285;-73
2023/01/04 05:44:56;;;;;;;17.80;11.70;;;;;;;5.79;100.00;101162.63;5012021;28;20198;-72
2023/01/04 05:47:23;;;;;;;20.15;13.23;;;;;;;5.70;100.00;101150.25;5016991;28;20222;-76
2023/01/04 05:49:50;;;;;;;15.70;12.00;;;;;;;5.72;100.00;101147.53;4999305;28;20250;-73
2023/01/04 05:52:17;;;;;;;14.48;10.02;;;;;;;5.70;100.00;101154.69;5002008;28;20282;-74
2023/01/04 05:54:43;;;;;;;14.10;9.82;;;;;;;5.73;100.00;101154.66;5015726;28;20214;-72
2023/01/04 05:57:10;;;;;;;16.35;9.82;;;;;;;5.74;100.00;101156.41;5015469;28;20205;-73
2023/01/04 05:59:37;;;;;;;16.35;11.55;;;;;;;5.77;100.00;101151.06;5013695;28;20226;-76
2023/01/04 06:02:06;;;;;;;17.05;11.07;;;;;;;5.78;100.00;101174.19;5006374;28;20205;-72
2023/01/04 06:04:32;;;;;;;14.75;10.75;;;;;;;5.75;100.00;101158.22;4999952;28;20200;-77
2023/01/04 06:06:59;;;;;;;19.25;11.93;;;;;;;5.80;100.00;101167.91;4994836;28;20318;-75
2023/01/04 06:09:26;;;;;;;19.10;12.48;;;;;;;5.75;100.00;101161.75;4993902;28;20231;-75
2023/01/04 06:11:53;;;;;;;18.98;12.98;;;;;;;5.70;100.00;101170.72;4995895;28;20203;-76
2023/01/04 06:14:20;;;;;;;17.45;12.27;;;;;;;5.72;100.00;101159.13;4996064;28;20209;-76
2023/01/04 06:16:46;;;;;;;19.15;12.30;;;;;;;5.71;100.00;101185.88;4994380;28;20231;-76
2023/01/04 06:19:14;;;;;;;12.68;8.38;;;;;;;5.66;100.00;101161.00;4993756;28;20219;-76
2023/01/04 06:21:41;;;;;;;15.52;9.77;;;;;;;5.66;100.00;101175.25;4994593;28;20207;-77
2023/01/04 06:24:07;;;;;;;16.95;12.45;;;;;;;5.64;100.00;101171.69;4994232;28;20213;-76
2023/01/04 06:26:34;;;;;;;17.70;12.05;;;;;;;5.62;100.00;101174.38;5000326;28;20733;-74
2023/01/04 06:29:00;;;;;;;15.18;10.50;;;;;;;5.63;100.00;101176.16;4999511;28;20219;-74
2023/01/04 06:31:27;;;;;;;13.48;9.07;;;;;;;5.62;100.00;101169.03;4999841;28;20286;-75
2023/01/04 06:33:53;;;;;;;14.63;10.55;;;;;;;5.64;100.00;101161.88;5004721;28;20242;-76
2023/01/04 06:36:21;;;;;;;14.13;9.93;;;;;;;5.63;100.00;101169.91;5001456;28;20214;-74
2023/01/04 06:38:48;;;;;;;13.75;9.40;;;;;;;5.68;100.00;101151.19;4999697;28;20222;-75
2023/01/04 06:41:15;;;;;;;16.42;9.40;;;;;;;5.61;100.00;101137.88;4996481;28;20239;-75
2023/01/04 06:43:41;;;;;;;17.45;11.90;;;;;;;5.57;100.00;101130.81;4994845;28;20235;-74
2023/01/04 06:46:08;;;;;;;19.38;10.15;;;;;;;5.63;100.00;101120.03;4996331;28;20233;-75
2023/01/04 06:48:34;;;;;;;14.65;10.80;;;;;;;5.62;100.00;101118.25;5008355;28;20297;-73
2023/01/04 06:51:01;;;;;;;18.33;9.55;;;;;;;5.64;100.00;101118.25;5007007;28;20246;-75
2023/01/04 06:53:29;;;;;;;15.75;10.80;;;;;;;5.66;100.00;101094.19;5005904;28;20207;-75
2023/01/04 06:55:55;;;;;;;20.25;10.57;;;;;;;5.67;100.00;101090.59;4998796;28;20210;-76
2023/01/04 06:58:22;;;;;;;16.77;11.18;;;;;;;5.62;100.00;101090.66;4999814;28;20203;-75
2023/01/04 07:00:50;;;;;;;18.90;9.88;;;;;;;5.63;100.00;101100.44;4999754;28;20210;-76
2023/01/04 07:03:17;;;;;;;21.17;12.23;;;;;;;5.62;100.00;101093.34;4999309;28;20213;-77
2023/01/04 07:05:44;;;;;;;19.38;11.25;;;;;;;5.63;100.00;101101.34;4996010;28;20662;-76
2023/01/04 07:08:11;;;;;;;19.40;12.30;;;;;;;5.61;100.00;101111.16;4994850;28;20582;-74
2023/01/04 07:10:40;;;;;;;22.85;13.85;;;;;;;5.64;100.00;101097.75;4995016;28;20203;-77
2023/01/04 07:13:07;;;;;;;21.02;11.20;;;;;;;5.66;100.00;101096.88;4996296;28;20226;-74
2023/01/04 07:15:34;;;;;;;14.65;8.95;;;;;;;5.69;100.00;101087.00;4996370;28;20291;-75
2023/01/04 07:18:01;;;;;;;16.38;10.60;;;;;;;5.72;100.00;101110.13;4993672;28;20199;-74
2023/01/04 07:20:28;;;;;;;22.83;14.82;;;;;;;5.70;100.00;101088.78;4995121;28;20237;-73
2023/01/04 07:22:54;;;;;;;23.00;11.40;;;;;;;5.75;100.00;101094.94;4998141;28;20199;-74
2023/01/04 07:25:21;;;;;;;19.02;11.50;;;;;;;5.75;100.00;101105.63;4999389;28;20559;-76
2023/01/04 07:27:53;;;;;;;17.73;10.57;;;;;;;5.83;100.00;101086.78;4995758;28;20231;-76
2023/01/04 07:30:20;;;;;;;16.77;8.85;;;;;;;5.88;100.00;101074.25;4996871;28;20234;-76
2023/01/04 07:32:47;;;;;;;17.90;11.27;;;;;;;5.90;100.00;101077.78;4996881;28;20207;-75
2023/01/04 07:35:14;;;;;;;18.50;10.85;;;;;;;5.97;100.00;101062.53;4996632;28;20209;-74
2023/01/04 07:37:42;;;;;;;18.42;9.75;;;;;;;5.99;100.00;101064.31;4995192;28;20204;-76
2023/01/04 07:40:10;;;;;;;18.13;9.65;;;;;;;6.05;100.00;101061.53;4993483;28;20709;-76
2023/01/04 07:42:36;;;;;;;18.17;9.80;;;;;;;6.11;100.00;101075.72;4993539;28;20294;-76
2023/01/04 07:45:06;;;;;;;15.23;8.95;;;;;;;6.13;100.00;101068.53;4995429;28;20210;-75
2023/01/04 07:47:32;;;;;;;25.67;10.50;;;;;;;6.18;100.00;101096.97;5019612;23;20356;-73
2023/01/04 07:50:00;;;;;;;18.85;11.77;;;;;;;6.21;100.00;101085.34;4999831;28;20213;-72
2023/01/04 07:52:27;;;;;;;19.00;10.05;;;;;;;6.24;100.00;101098.66;5000323;28;20617;-73
2023/01/04 07:54:53;;;;;;;17.02;10.00;;;;;;;6.24;100.00;101104.00;5000242;28;20239;-74
2023/01/04 07:57:20;;;;;;;16.95;9.95;;;;;;;6.26;100.00;101103.09;5000337;28;20906;-72
2023/01/04 07:59:46;;;;;;;17.70;10.02;;;;;;;6.32;100.00;101096.75;4999535;28;20243;-72
2023/01/04 08:02:14;;;;;;;17.08;10.48;;;;;;;6.31;100.00;101113.72;5000150;28;20213;-72
2023/01/04 08:04:41;;;;;;;18.65;10.57;;;;;;;6.36;100.00;101108.28;5000710;28;20580;-72
2023/01/04 08:07:07;;;;;;;14.30;9.18;;;;;;;6.36;100.00;101127.91;4999488;28;20601;-73
2023/01/04 08:09:34;;;;;;;15.75;10.18;;;;;;;6.40;100.00;101121.59;5001103;28;20669;-73
2023/01/04 08:12:01;;;;;;;13.45;8.63;;;;;;;6.46;100.00;101126.81;5007410;28;20207;-71
2023/01/04 08:14:27;;;;;;;16.25;9.70;;;;;;;6.47;100.00;101141.13;5006989;28;20230;-71
2023/01/04 08:16:54;;;;;;;15.05;8.13;;;;;;;6.51;100.00;101133.91;5008310;28;20243;-74
2023/01/04 08:19:22;;;;;;;17.33;9.45;;;;;;;6.53;100.00;101132.97;5005885;28;20278;-72
2023/01/04 08:21:49;;;;;;;15.85;8.50;;;;;;;6.56;100.00;101118.66;5002824;28;20207;-72
2023/01/04 08:24:17;;;;;;;14.50;8.18;;;;;;;6.61;100.00;101130.16;5000474;28;20205;-73
2023/01/04 08:26:44;;;;;;;14.95;9.70;;;;;;;6.62;100.00;101140.81;4999997;28;20228;-72
2023/01/04 08:29:11;;;;;;;13.15;8.50;;;;;;;6.67;100.00;101136.31;4998337;28;20207;-71
2023/01/04 08:31:38;;;;;;;12.93;8.35;;;;;;;6.70;100.00;101111.25;4999063;28;20215;-72
2023/01/04 08:34:08;;;;;;;12.50;7.75;;;;;;;6.70;100.00;101103.22;4999400;28;20249;-72
2023/01/04 08:36:46;;;;;;;10.15;6.53;;;;;;;6.76;100.00;101113.84;4998883;28;20237;-74
2023/01/04 08:39:12;;;;;;;11.73;8.32;;;;;;;6.78;100.00;101106.63;4998623;28;20199;-73
2023/01/04 08:41:50;;;;;;;12.50;8.13;;;;;;;6.85;100.00;101104.72;5001281;28;20214;-72
2023/01/04 08:44:17;;;;;;;11.65;8.02;;;;;;;6.89;100.00;101112.66;5002237;28;20759;-74
2023/01/04 08:46:44;;;;;;;12.23;8.10;;;;;;;6.86;100.00;101111.88;5002483;28;20234;-75
2023/01/04 08:49:11;;;;;;;9.85;7.05;;;;;;;6.94;100.00;101120.63;5001960;28;20245;-73
2023/01/04 08:51:39;;;;;;;10.65;6.78;;;;;;;6.90;100.00;101102.88;5002391;28;20206;-74
2023/01/04 08:54:06;;;;;;;9.82;6.70;;;;;;;6.94;100.00;101125.09;5002334;28;20203;-73
2023/01/04 08:56:32;;;;;;;12.02;7.10;;;;;;;6.93;100.00;101108.16;5002234;28;20229;-72
2023/01/04 08:58:59;;;;;;;9.50;6.22;;;;;;;6.96;100.00;101104.53;5001589;28;20199;-72
2023/01/04 09:01:26;;;;;;;10.02;6.30;;;;;;;6.93;100.00;101094.75;5001196;28;20223;-72
2023/01/04 09:03:54;;;;;;;13.63;6.47;;;;;;;7.00;100.00;101095.53;5001573;28;20199;-73
2023/01/04 09:06:21;;;;;;;13.15;6.35;;;;;;;7.06;100.00;101101.66;4999325;28;20754;-72
2023/01/04 09:08:49;;;;;;;8.65;6.60;;;;;;;7.04;100.00;101098.13;5002690;28;20203;-74
2023/01/04 09:11:17;;;;;;;7.70;5.50;;;;;;;7.05;100.00;101104.34;5007721;28;20214;-72
2023/01/04 09:13:45;;;;;;;7.15;4.95;;;;;;;7.12;100.00;101087.25;5011473;28;20203;-76
2023/01/04 09:16:13;;;;;;;8.38;5.85;;;;;;;7.11;100.00;101085.50;5009981;28;20302;-73
2023/01/04 09:18:40;;;;;;;9.32;5.82;;;;;;;7.11;100.00;101074.78;5011965;28;20268;-72
2023/01/04 09:21:08;;;;;;;9.82;6.32;;;;;;;7.17;100.00;101068.38;5013534;28;20230;-73
2023/01/04 09:23:35;;;;;;;8.05;5.32;;;;;;;7.18;100.00;101068.38;5009055;28;20238;-74
2023/01/04 09:26:07;;;;;;;9.32;5.20;;;;;;;7.22;100.00;101066.53;5009026;28;20385;-73
2023/01/04 09:28:33;;;;;;;7.32;5.60;;;;;;;7.22;100.00;101062.03;5005226;28;20231;-72
2023/01/04 09:31:05;;;;;;;8.82;5.35;;;;;;;7.23;100.00;101057.56;5001305;28;20215;-73
2023/01/04 09:33:31;;;;;;;7.70;5.35;;;;;;;7.25;100.00;101063.78;4999881;28;20194;-73
2023/01/04 09:36:01;;;;;;;9.98;5.97;;;;;;;7.30;100.00;101065.44;5003186;28;20227;-73
2023/01/04 09:38:27;;;;;;;7.55;5.10;;;;;;;7.32;100.00;101050.19;5001419;28;20205;-72
2023/01/04 09:41:02;;;;;;;12.45;6.13;;;;;;;7.36;100.00;101068.91;5001403;28;20218;-73
2023/01/04 09:43:39;;;;;;;7.40;5.20;;;;;;;7.36;100.00;101060.88;5001212;28;20231;-71
2023/01/04 09:46:10;;;;;;;7.68;4.35;;;;;;;7.36;100.00;101050.16;4999175;28;20231;-72
2023/01/04 09:48:41;;;;;;;7.63;5.25;;;;;;;7.35;100.00;101051.03;4998246;28;20227;-72
2023/01/04 09:51:13;;;;;;;9.18;5.60;;;;;;;7.44;100.00;101061.56;4998594;28;20567;-74
2023/01/04 09:53:46;;;;;;;7.72;5.38;;;;;;;7.45;100.00;101053.50;4997625;28;20241;-73
2023/01/04 09:56:20;;;;;;;7.40;5.43;;;;;;;7.45;100.00;101056.19;4999525;28;20310;-74
2023/01/04 09:58:49;;;;;;;8.45;5.03;;;;;;;7.48;100.00;101058.81;4997764;28;20199;-72
2023/01/04 10:01:22;;;;;;;8.68;5.68;;;;;;;7.56;100.00;101050.59;4999201;28;20282;-73
2023/01/04 10:03:58;;;;;;;6.88;4.80;;;;;;;7.57;100.00;101059.50;4997947;28;20283;-71
2023/01/04 10:06:24;;;;;;;6.78;5.32;;;;;;;7.57;100.00;101056.81;5001691;28;20229;-72
2023/01/04 10:08:51;;;;;;;9.55;5.03;;;;;;;7.63;100.00;101062.94;5001213;28;20599;-72
2023/01/04 10:11:35;;;;;;;6.22;4.50;;;;;;;7.62;100.00;101063.84;4998156;28;20298;-73
2023/01/04 10:14:22;;;;;;;8.77;3.80;;;;;;;7.67;100.00;101056.59;4998506;28;20239;-73
2023/01/04 10:17:05;;;;;;;7.35;4.78;;;;;;;7.70;100.00;101056.50;4996483;28;20232;-73
2023/01/04 10:19:46;;;;;;;5.55;4.00;;;;;;;7.73;100.00;101056.44;4995726;28;20213;-72
2023/01/04 10:22:20;;;;;;;7.65;3.75;;;;;;;7.73;100.00;101042.13;4998804;28;20188;-72
2023/01/04 10:24:56;;;;;;;6.63;3.85;;;;;;;7.79;100.00;101052.72;4996219;28;20226;-72
2023/01/04 10:27:31;;;;;;;5.00;3.97;;;;;;;7.85;100.00;101055.28;4996089;28;20223;-72
2023/01/04 10:30:17;;;;;;;3.88;2.78;;;;;;;7.87;100.00;101047.22;4997576;28;20538;-74
2023/01/04 10:32:46;;;;;;;6.32;4.00;;;;;;;7.90;100.00;101044.44;5000243;28;20202;-74
2023/01/04 10:35:19;;;;;;;5.55;3.47;;;;;;;7.89;100.00;101046.25;4999306;28;20223;-73
2023/01/04 10:37:48;;;;;;;5.43;4.18;;;;;;;7.87;100.00;101036.47;4997764;28;20230;-72
2023/01/04 10:40:16;;;;;;;7.95;3.85;;;;;;;7.91;100.00;101019.38;4998648;28;20233;-72
2023/01/04 10:42:50;;;;;;;6.65;4.45;;;;;;;7.88;100.00;101020.31;4998558;28;20263;-72
2023/01/04 10:45:23;;;;;;;6.47;4.05;;;;;;;7.92;100.00;101011.28;4999968;28;20191;-73
2023/01/04 10:48:01;;;;;;;5.90;3.88;;;;;;;7.98;100.00;101012.06;4997712;28;20227;-75
2023/01/04 10:50:33;;;;;;;4.55;3.60;;;;;;;8.01;100.00;101012.00;4997758;28;20318;-72
2023/01/04 10:53:05;;;;;;;6.43;4.13;;;;;;;7.98;100.00;101010.25;4997183;28;20585;-74
2023/01/04 10:55:38;;;;;;;4.80;3.85;;;;;;;8.05;100.00;101008.28;4999378;28;20607;-73
2023/01/04 10:58:11;;;;;;;5.53;3.72;;;;;;;8.04;100.00;101007.41;4998132;28;20652;-72
2023/01/04 11:00:44;;;;;;;5.32;3.55;;;;;;;8.09;100.00;101008.16;5000288;28;20197;-72
2023/01/04 11:03:17;;;;;;;5.18;3.70;;;;;;;8.08;100.00;101002.88;5004302;28;20190;-74
2023/01/04 11:05:51;;;;;;;5.55;3.55;;;;;;;8.15;100.00;100996.41;5001310;28;20241;-73
2023/01/04 11:08:23;;;;;;;5.43;3.60;;;;;;;8.13;100.00;100996.44;5008718;28;20254;-74
2023/01/04 11:10:54;;;;;;;4.75;3.55;;;;;;;8.14;100.00;101002.72;5012030;28;20290;-72
2023/01/04 11:13:22;;;;;;;5.18;3.30;;;;;;;8.13;100.00;100991.09;4998761;28;20187;-72
2023/01/04 11:15:51;;;;;;;5.05;3.33;;;;;;;8.14;100.00;100992.88;4997387;28;20227;-72
2023/01/04 11:18:18;;;;;;;5.82;3.58;;;;;;;8.20;100.00;100989.13;4997801;28;20215;-72
2023/01/04 11:20:45;;;;;;;5.68;3.42;;;;;;;8.18;100.00;100999.00;5012319;28;20203;-73
2023/01/04 11:23:14;;;;;;;4.55;3.00;;;;;;;8.32;100.00;100982.53;5013484;28;20222;-72
2023/01/04 11:25:47;;;;;;;6.32;3.15;;;;;;;8.32;100.00;100990.59;5013708;28;20242;-74
2023/01/04 11:28:21;;;;;;;5.90;3.63;;;;;;;8.35;100.00;100969.94;4995824;28;20207;-72
2023/01/04 11:30:58;;;;;;;5.95;3.95;;;;;;;8.41;100.00;100979.66;5004765;28;20290;-73
2023/01/04 11:33:25;;;;;;;3.70;2.65;;;;;;;8.42;100.00;100953.72;5000530;28;20615;-72
2023/01/04 11:35:54;;;;;;;5.00;3.03;;;;;;;8.45;100.00;100953.59;5000764;28;20306;-73
2023/01/04 11:38:22;;;;;;;5.40;3.10;;;;;;;8.47;100.00;100935.66;5000423;28;20203;-73
2023/01/04 11:40:58;;;;;;;4.55;3.08;;;;;;;8.55;100.00;100947.06;5000915;28;20637;-73
2023/01/04 11:43:26;;;;;;;3.53;2.85;;;;;;;8.59;100.00;100948.72;5007103;28;20202;-73
2023/01/04 11:45:57;;;;;;;3.65;2.78;;;;;;;8.64;100.00;100938.75;5013563;28;20299;-74
2023/01/04 11:48:36;;;;;;;3.10;2.47;;;;;;;8.69;100.00;100949.34;5014424;28;20290;-72
2023/01/04 11:51:04;;;;;;;3.75;2.60;;;;;;;8.71;100.00;100939.47;5013501;28;20239;-72
2023/01/04 11:53:33;;;;;;;5.10;2.90;;;;;;;8.72;100.00;100936.72;5008599;28;20199;-71
2023/01/04 11:56:12;;;;;;;3.88;2.80;;;;;;;8.70;100.00;100919.75;5001189;28;20227;-74
2023/01/04 11:58:39;;;;;;;3.28;2.80;;;;;;;8.75;100.00;100925.00;4999850;28;20207;-73
2023/01/04 12:01:20;;;;;;;4.28;3.28;;;;;;;8.78;100.00;100924.91;5008615;28;20214;-74
2023/01/04 12:03:48;;;;;;;4.72;2.88;;;;;;;8.83;100.00;100917.59;5012307;28;20267;-73
2023/01/04 12:06:18;;;;;;;5.20;3.45;;;;;;;8.78;100.00;100908.81;5006972;28;20224;-72
2023/01/04 12:08:45;;;;;;;5.35;3.00;;;;;;;8.81;100.00;100897.97;5001924;28;20207;-73
2023/01/04 12:11:21;;;;;;;3.20;2.65;;;;;;;8.82;100.00;100902.41;5000078;28;20206;-73
2023/01/04 12:13:48;;;;;;;4.68;2.40;;;;;;;8.85;100.00;100902.31;4999906;28;20199;-72
2023/01/04 12:16:25;;;;;;;5.88;2.95;;;;;;;8.89;100.00;100900.44;4999871;28;20709;-73